sensor_id;sensor_type;location;lat;lon;timestamp;P1;durP1;ratioP1;P2;durP2;ratioP2
52838;SDS011;39219;53.678;9.856;2023-06-01T00:01:45;21.05;;;8.15;;
52838;SDS011;39219;53.678;9.856;2023-06-01T00:04:13;16.83;;;7.40;;
52838;SDS011;39219;53.678;9.856;2023-06-01T00:06:39;18.58;;;7.72;;
52838;SDS011;39219;53.678;9.856;2023-06-01T00:09:06;15.27;;;7.82;;
52838;SDS011;39219;53.678;9.856;2023-06-01T00:11:32;22.85;;;8.70;;
52838;SDS011;39219;53.678;9.856;2023-06-01T00:13:58;19.73;;;9.07;;
52838;SDS011;39219;53.678;9.856;2023-06-01T00:16:25;20.70;;;9.75;;
52838;SDS011;39219;53.678;9.856;2023-06-01T00:18:51;18.27;;;9.55;;
52838;SDS011;39219;53.678;9.856;2023-06-01T00:21:19;17.88;;;9.43;;
52838;SDS011;39219;53.678;9.856;2023-06-01T00:23:45;20.20;;;9.68;;
52838;SDS011;39219;53.678;9.856;2023-06-01T00:26:13;20.35;;;10.45;;
52838;SDS011;39219;53.678;9.856;2023-06-01T00:28:39;20.92;;;9.93;;
52838;SDS011;39219;53.678;9.856;2023-06-01T00:31:05;19.15;;;10.30;;
52838;SDS011;39219;53.678;9.856;2023-06-01T00:33:32;22.80;;;10.90;;
52838;SDS011;39219;53.678;9.856;2023-06-01T00:35:58;22.60;;;10.93;;
52838;SDS011;39219;53.678;9.856;2023-06-01T00:38:26;25.52;;;10.90;;
52838;SDS011;39219;53.678;9.856;2023-06-01T00:40:52;16.98;;;10.02;;
52838;SDS011;39219;53.678;9.856;2023-06-01T00:43:18;20.10;;;9.20;;
52838;SDS011;39219;53.678;9.856;2023-06-01T00:45:45;16.55;;;8.90;;
52838;SDS011;39219;53.678;9.856;2023-06-01T00:48:11;19.83;;;8.05;;
52838;SDS011;39219;53.678;9.856;2023-06-01T00:50:38;17.67;;;7.88;;
52838;SDS011;39219;53.678;9.856;2023-06-01T00:53:05;20.08;;;8.68;;
52838;SDS011;39219;53.678;9.856;2023-06-01T00:55:34;15.35;;;8.13;;
52838;SDS011;39219;53.678;9.856;2023-06-01T00:58:00;20.20;;;7.88;;
52838;SDS011;39219;53.678;9.856;2023-06-01T01:00:27;18.20;;;7.47;;
52838;SDS011;39219;53.678;9.856;2023-06-01T01:02:54;15.45;;;7.10;;
52838;SDS011;39219;53.678;9.856;2023-06-01T01:05:22;14.73;;;6.95;;
52838;SDS011;39219;53.678;9.856;2023-06-01T01:07:53;14.63;;;6.50;;
52838;SDS011;39219;53.678;9.856;2023-06-01T01:10:22;13.77;;;5.93;;
52838;SDS011;39219;53.678;9.856;2023-06-01T01:12:53;15.88;;;6.03;;
52838;SDS011;39219;53.678;9.856;2023-06-01T01:15:26;20.50;;;5.80;;
52838;SDS011;39219;53.678;9.856;2023-06-01T01:17:57;13.43;;;6.00;;
52838;SDS011;39219;53.678;9.856;2023-06-01T01:20:28;18.25;;;6.32;;
52838;SDS011;39219;53.678;9.856;2023-06-01T01:23:01;14.38;;;6.63;;
52838;SDS011;39219;53.678;9.856;2023-06-01T01:25:46;17.60;;;7.50;;
52838;SDS011;39219;53.678;9.856;2023-06-01T01:28:23;19.13;;;8.20;;
52838;SDS011;39219;53.678;9.856;2023-06-01T01:33:18;19.38;;;8.63;;
52838;SDS011;39219;53.678;9.856;2023-06-01T01:35:44;19.85;;;8.68;;
52838;SDS011;39219;53.678;9.856;2023-06-01T01:38:11;19.52;;;9.05;;
52838;SDS011;39219;53.678;9.856;2023-06-01T01:40:37;20.30;;;9.20;;
52838;SDS011;39219;53.678;9.856;2023-06-01T01:43:03;19.65;;;8.35;;
52838;SDS011;39219;53.678;9.856;2023-06-01T01:45:31;16.17;;;7.53;;
52838;SDS011;39219;53.678;9.856;2023-06-01T01:47:58;21.55;;;9.25;;
52838;SDS011;39219;53.678;9.856;2023-06-01T01:50:27;19.92;;;9.98;;
52838;SDS011;39219;53.678;9.856;2023-06-01T01:52:54;19.85;;;9.82;;
52838;SDS011;39219;53.678;9.856;2023-06-01T01:55:20;20.33;;;9.60;;
52838;SDS011;39219;53.678;9.856;2023-06-01T01:57:48;19.70;;;9.40;;
52838;SDS011;39219;53.678;9.856;2023-06-01T02:00:16;22.13;;;9.75;;
52838;SDS011;39219;53.678;9.856;2023-06-01T02:02:45;19.08;;;9.20;;
52838;SDS011;39219;53.678;9.856;2023-06-01T02:05:12;21.83;;;8.93;;
52838;SDS011;39219;53.678;9.856;2023-06-01T02:07:38;18.02;;;8.73;;
52838;SDS011;39219;53.678;9.856;2023-06-01T02:10:05;22.08;;;8.05;;
52838;SDS011;39219;53.678;9.856;2023-06-01T02:12:31;16.85;;;7.47;;
52838;SDS011;39219;53.678;9.856;2023-06-01T02:14:57;17.17;;;7.55;;
52838;SDS011;39219;53.678;9.856;2023-06-01T02:17:24;17.13;;;7.60;;
52838;SDS011;39219;53.678;9.856;2023-06-01T02:19:53;19.33;;;8.18;;
52838;SDS011;39219;53.678;9.856;2023-06-01T02:22:19;16.77;;;8.27;;
52838;SDS011;39219;53.678;9.856;2023-06-01T02:24:45;17.85;;;8.30;;
52838;SDS011;39219;53.678;9.856;2023-06-01T02:27:12;19.35;;;8.20;;
52838;SDS011;39219;53.678;9.856;2023-06-01T02:29:38;19.08;;;8.50;;
52838;SDS011;39219;53.678;9.856;2023-06-01T02:32:05;17.00;;;8.07;;
52838;SDS011;39219;53.678;9.856;2023-06-01T02:34:31;22.45;;;8.73;;
52838;SDS011;39219;53.678;9.856;2023-06-01T02:36:59;18.50;;;8.63;;
52838;SDS011;39219;53.678;9.856;2023-06-01T02:39:25;17.27;;;8.55;;
52838;SDS011;39219;53.678;9.856;2023-06-01T02:41:51;17.67;;;8.43;;
52838;SDS011;39219;53.678;9.856;2023-06-01T02:44:18;17.90;;;8.65;;
52838;SDS011;39219;53.678;9.856;2023-06-01T02:46:44;20.67;;;8.90;;
52838;SDS011;39219;53.678;9.856;2023-06-01T02:49:10;17.98;;;8.82;;
52838;SDS011;39219;53.678;9.856;2023-06-01T02:51:37;23.02;;;9.13;;
52838;SDS011;39219;53.678;9.856;2023-06-01T02:54:04;18.60;;;8.48;;
52838;SDS011;39219;53.678;9.856;2023-06-01T02:56:30;14.80;;;7.75;;
52838;SDS011;39219;53.678;9.856;2023-06-01T02:58:57;18.48;;;8.00;;
52838;SDS011;39219;53.678;9.856;2023-06-01T03:01:23;16.58;;;8.15;;
52838;SDS011;39219;53.678;9.856;2023-06-01T03:03:49;20.52;;;7.32;;
52838;SDS011;39219;53.678;9.856;2023-06-01T03:06:17;12.32;;;6.50;;
52838;SDS011;39219;53.678;9.856;2023-06-01T03:08:46;15.70;;;5.88;;
52838;SDS011;39219;53.678;9.856;2023-06-01T03:11:14;15.02;;;5.57;;
52838;SDS011;39219;53.678;9.856;2023-06-01T03:13:40;13.75;;;5.10;;
52838;SDS011;39219;53.678;9.856;2023-06-01T03:16:06;12.27;;;5.18;;
52838;SDS011;39219;53.678;9.856;2023-06-01T03:18:33;16.90;;;5.15;;
52838;SDS011;39219;53.678;9.856;2023-06-01T03:20:59;13.95;;;5.65;;
52838;SDS011;39219;53.678;9.856;2023-06-01T03:23:27;17.92;;;6.55;;
52838;SDS011;39219;53.678;9.856;2023-06-01T03:25:54;16.67;;;6.45;;
52838;SDS011;39219;53.678;9.856;2023-06-01T03:28:22;16.90;;;7.30;;
52838;SDS011;39219;53.678;9.856;2023-06-01T03:30:48;20.55;;;7.85;;
52838;SDS011;39219;53.678;9.856;2023-06-01T03:33:14;16.40;;;7.95;;
52838;SDS011;39219;53.678;9.856;2023-06-01T03:35:41;20.55;;;8.23;;
52838;SDS011;39219;53.678;9.856;2023-06-01T03:38:09;19.60;;;8.30;;
52838;SDS011;39219;53.678;9.856;2023-06-01T03:40:35;19.20;;;7.72;;
52838;SDS011;39219;53.678;9.856;2023-06-01T03:43:01;22.10;;;8.10;;
52838;SDS011;39219;53.678;9.856;2023-06-01T03:45:29;19.73;;;8.23;;
52838;SDS011;39219;53.678;9.856;2023-06-01T03:47:55;16.55;;;7.15;;
52838;SDS011;39219;53.678;9.856;2023-06-01T03:50:22;17.77;;;6.57;;
52838;SDS011;39219;53.678;9.856;2023-06-01T03:52:48;19.85;;;7.03;;
52838;SDS011;39219;53.678;9.856;2023-06-01T03:55:14;17.45;;;6.53;;
52838;SDS011;39219;53.678;9.856;2023-06-01T03:57:41;17.65;;;6.50;;
52838;SDS011;39219;53.678;9.856;2023-06-01T04:00:07;15.50;;;6.72;;
52838;SDS011;39219;53.678;9.856;2023-06-01T04:02:47;18.25;;;6.35;;
52838;SDS011;39219;53.678;9.856;2023-06-01T04:05:14;13.48;;;5.75;;
52838;SDS011;39219;53.678;9.856;2023-06-01T04:07:42;17.02;;;5.68;;
52838;SDS011;39219;53.678;9.856;2023-06-01T04:10:08;15.85;;;5.47;;
52838;SDS011;39219;53.678;9.856;2023-06-01T04:12:36;13.98;;;5.28;;
52838;SDS011;39219;53.678;9.856;2023-06-01T04:15:02;18.05;;;5.65;;
52838;SDS011;39219;53.678;9.856;2023-06-01T04:17:29;12.80;;;5.30;;
52838;SDS011;39219;53.678;9.856;2023-06-01T04:19:56;16.67;;;5.35;;
52838;SDS011;39219;53.678;9.856;2023-06-01T04:22:23;16.88;;;6.00;;
52838;SDS011;39219;53.678;9.856;2023-06-01T04:24:49;13.98;;;5.50;;
52838;SDS011;39219;53.678;9.856;2023-06-01T04:27:15;15.88;;;5.50;;
52838;SDS011;39219;53.678;9.856;2023-06-01T04:29:42;13.30;;;5.00;;
52838;SDS011;39219;53.678;9.856;2023-06-01T04:32:09;13.95;;;4.97;;
52838;SDS011;39219;53.678;9.856;2023-06-01T04:34:35;16.55;;;5.07;;
52838;SDS011;39219;53.678;9.856;2023-06-01T04:37:04;13.73;;;5.00;;
52838;SDS011;39219;53.678;9.856;2023-06-01T04:39:31;17.00;;;5.47;;
52838;SDS011;39219;53.678;9.856;2023-06-01T04:42:00;16.08;;;4.97;;
52838;SDS011;39219;53.678;9.856;2023-06-01T04:44:27;13.30;;;4.65;;
52838;SDS011;39219;53.678;9.856;2023-06-01T04:46:54;13.75;;;4.80;;
52838;SDS011;39219;53.678;9.856;2023-06-01T04:49:22;12.70;;;4.60;;
52838;SDS011;39219;53.678;9.856;2023-06-01T04:51:51;16.55;;;4.82;;
52838;SDS011;39219;53.678;9.856;2023-06-01T04:54:18;13.75;;;4.72;;
52838;SDS011;39219;53.678;9.856;2023-06-01T04:56:44;14.07;;;5.00;;
52838;SDS011;39219;53.678;9.856;2023-06-01T04:59:11;11.00;;;4.47;;
52838;SDS011;39219;53.678;9.856;2023-06-01T05:01:37;15.00;;;5.50;;
52838;SDS011;39219;53.678;9.856;2023-06-01T05:04:04;13.82;;;4.55;;
52838;SDS011;39219;53.678;9.856;2023-06-01T05:06:30;12.65;;;4.78;;
52838;SDS011;39219;53.678;9.856;2023-06-01T05:08:57;10.80;;;4.40;;
52838;SDS011;39219;53.678;9.856;2023-06-01T05:11:24;16.98;;;4.75;;
52838;SDS011;39219;53.678;9.856;2023-06-01T05:13:51;12.88;;;4.90;;
52838;SDS011;39219;53.678;9.856;2023-06-01T05:16:17;11.88;;;4.53;;
52838;SDS011;39219;53.678;9.856;2023-06-01T05:18:43;12.20;;;4.75;;
52838;SDS011;39219;53.678;9.856;2023-06-01T05:21:10;12.50;;;4.18;;
52838;SDS011;39219;53.678;9.856;2023-06-01T05:23:36;12.65;;;4.30;;
52838;SDS011;39219;53.678;9.856;2023-06-01T05:26:02;12.50;;;4.35;;
52838;SDS011;39219;53.678;9.856;2023-06-01T05:28:31;10.00;;;4.13;;
52838;SDS011;39219;53.678;9.856;2023-06-01T05:30:57;15.80;;;4.50;;
52838;SDS011;39219;53.678;9.856;2023-06-01T05:33:24;12.18;;;4.25;;
52838;SDS011;39219;53.678;9.856;2023-06-01T05:35:51;12.93;;;3.95;;
52838;SDS011;39219;53.678;9.856;2023-06-01T05:38:17;14.02;;;4.47;;
52838;SDS011;39219;53.678;9.856;2023-06-01T05:40:44;15.07;;;5.07;;
52838;SDS011;39219;53.678;9.856;2023-06-01T05:43:10;15.60;;;4.60;;
52838;SDS011;39219;53.678;9.856;2023-06-01T05:45:38;13.45;;;4.30;;
52838;SDS011;39219;53.678;9.856;2023-06-01T05:48:04;11.73;;;4.40;;
52838;SDS011;39219;53.678;9.856;2023-06-01T05:50:31;12.80;;;4.43;;
52838;SDS011;39219;53.678;9.856;2023-06-01T05:52:57;10.60;;;3.92;;
52838;SDS011;39219;53.678;9.856;2023-06-01T05:55:23;13.60;;;4.00;;
52838;SDS011;39219;53.678;9.856;2023-06-01T05:57:49;11.73;;;3.58;;
52838;SDS011;39219;53.678;9.856;2023-06-01T06:00:16;12.40;;;3.92;;
52838;SDS011;39219;53.678;9.856;2023-06-01T06:02:44;10.52;;;3.88;;
52838;SDS011;39219;53.678;9.856;2023-06-01T06:05:10;12.48;;;4.20;;
52838;SDS011;39219;53.678;9.856;2023-06-01T06:07:37;13.27;;;3.90;;
52838;SDS011;39219;53.678;9.856;2023-06-01T06:10:03;12.63;;;3.70;;
52838;SDS011;39219;53.678;9.856;2023-06-01T06:12:30;12.82;;;3.88;;
52838;SDS011;39219;53.678;9.856;2023-06-01T06:14:56;12.25;;;3.97;;
52838;SDS011;39219;53.678;9.856;2023-06-01T06:17:22;12.90;;;3.92;;
52838;SDS011;39219;53.678;9.856;2023-06-01T06:19:50;13.23;;;3.70;;
52838;SDS011;39219;53.678;9.856;2023-06-01T06:22:16;10.60;;;3.85;;
52838;SDS011;39219;53.678;9.856;2023-06-01T06:24:43;13.63;;;4.30;;
52838;SDS011;39219;53.678;9.856;2023-06-01T06:27:09;11.60;;;4.18;;
52838;SDS011;39219;53.678;9.856;2023-06-01T06:29:36;12.80;;;4.25;;
52838;SDS011;39219;53.678;9.856;2023-06-01T06:32:02;12.32;;;3.50;;
52838;SDS011;39219;53.678;9.856;2023-06-01T06:34:29;14.75;;;3.70;;
52838;SDS011;39219;53.678;9.856;2023-06-01T06:37:01;12.32;;;3.90;;
52838;SDS011;39219;53.678;9.856;2023-06-01T06:39:28;12.75;;;3.22;;
52838;SDS011;39219;53.678;9.856;2023-06-01T06:41:54;10.82;;;3.22;;
52838;SDS011;39219;53.678;9.856;2023-06-01T06:44:20;9.75;;;3.40;;
52838;SDS011;39219;53.678;9.856;2023-06-01T06:46:47;10.70;;;3.10;;
52838;SDS011;39219;53.678;9.856;2023-06-01T06:49:13;9.93;;;2.80;;
52838;SDS011;39219;53.678;9.856;2023-06-01T06:51:40;8.70;;;2.83;;
52838;SDS011;39219;53.678;9.856;2023-06-01T06:54:08;9.20;;;2.88;;
52838;SDS011;39219;53.678;9.856;2023-06-01T06:56:34;10.15;;;3.13;;
52838;SDS011;39219;53.678;9.856;2023-06-01T06:59:00;9.75;;;2.70;;
52838;SDS011;39219;53.678;9.856;2023-06-01T07:01:27;10.32;;;3.00;;
52838;SDS011;39219;53.678;9.856;2023-06-01T07:03:53;9.55;;;3.15;;
52838;SDS011;39219;53.678;9.856;2023-06-01T07:06:20;14.02;;;3.20;;
52838;SDS011;39219;53.678;9.856;2023-06-01T07:08:47;8.65;;;2.95;;
52838;SDS011;39219;53.678;9.856;2023-06-01T07:11:16;9.20;;;3.10;;
52838;SDS011;39219;53.678;9.856;2023-06-01T07:13:42;9.80;;;2.92;;
52838;SDS011;39219;53.678;9.856;2023-06-01T07:16:08;11.25;;;3.08;;
52838;SDS011;39219;53.678;9.856;2023-06-01T07:18:35;10.85;;;3.00;;
52838;SDS011;39219;53.678;9.856;2023-06-01T07:21:01;10.68;;;3.05;;
52838;SDS011;39219;53.678;9.856;2023-06-01T07:23:27;13.02;;;3.60;;
52838;SDS011;39219;53.678;9.856;2023-06-01T07:25:55;12.13;;;3.25;;
52838;SDS011;39219;53.678;9.856;2023-06-01T07:28:22;10.68;;;3.80;;
52838;SDS011;39219;53.678;9.856;2023-06-01T07:30:50;10.45;;;3.30;;
52838;SDS011;39219;53.678;9.856;2023-06-01T07:33:16;11.63;;;3.40;;
52838;SDS011;39219;53.678;9.856;2023-06-01T07:35:43;12.25;;;3.53;;
52838;SDS011;39219;53.678;9.856;2023-06-01T07:38:10;12.25;;;3.40;;
52838;SDS011;39219;53.678;9.856;2023-06-01T07:40:37;12.05;;;3.50;;
52838;SDS011;39219;53.678;9.856;2023-06-01T07:43:03;12.75;;;3.33;;
52838;SDS011;39219;53.678;9.856;2023-06-01T07:45:31;10.57;;;3.08;;
52838;SDS011;39219;53.678;9.856;2023-06-01T07:47:57;10.00;;;3.60;;
52838;SDS011;39219;53.678;9.856;2023-06-01T07:50:25;12.07;;;3.65;;
52838;SDS011;39219;53.678;9.856;2023-06-01T07:52:55;11.50;;;3.70;;
52838;SDS011;39219;53.678;9.856;2023-06-01T07:55:22;9.73;;;3.72;;
52838;SDS011;39219;53.678;9.856;2023-06-01T07:57:49;13.48;;;3.63;;
52838;SDS011;39219;53.678;9.856;2023-06-01T08:00:15;11.40;;;3.70;;
52838;SDS011;39219;53.678;9.856;2023-06-01T08:02:43;8.38;;;3.50;;
52838;SDS011;39219;53.678;9.856;2023-06-01T08:05:10;11.77;;;3.80;;
52838;SDS011;39219;53.678;9.856;2023-06-01T08:07:37;11.90;;;3.75;;
52838;SDS011;39219;53.678;9.856;2023-06-01T08:10:04;13.52;;;3.55;;
52838;SDS011;39219;53.678;9.856;2023-06-01T08:12:31;10.35;;;3.55;;
52838;SDS011;39219;53.678;9.856;2023-06-01T08:14:57;10.52;;;3.58;;
52838;SDS011;39219;53.678;9.856;2023-06-01T08:17:24;10.20;;;3.78;;
52838;SDS011;39219;53.678;9.856;2023-06-01T08:19:52;13.45;;;4.22;;
52838;SDS011;39219;53.678;9.856;2023-06-01T08:22:20;12.30;;;3.65;;
52838;SDS011;39219;53.678;9.856;2023-06-01T08:24:46;11.88;;;3.50;;
52838;SDS011;39219;53.678;9.856;2023-06-01T08:27:16;13.25;;;3.72;;
52838;SDS011;39219;53.678;9.856;2023-06-01T08:29:44;12.43;;;3.83;;
52838;SDS011;39219;53.678;9.856;2023-06-01T08:32:11;10.95;;;3.83;;
52838;SDS011;39219;53.678;9.856;2023-06-01T08:34:37;10.93;;;3.40;;
52838;SDS011;39219;53.678;9.856;2023-06-01T08:37:05;9.90;;;3.25;;
52838;SDS011;39219;53.678;9.856;2023-06-01T08:39:32;10.10;;;3.35;;
52838;SDS011;39219;53.678;9.856;2023-06-01T08:42:02;9.27;;;3.22;;
52838;SDS011;39219;53.678;9.856;2023-06-01T08:44:32;11.77;;;3.53;;
52838;SDS011;39219;53.678;9.856;2023-06-01T08:47:00;10.13;;;3.33;;
52838;SDS011;39219;53.678;9.856;2023-06-01T08:49:27;12.50;;;3.60;;
52838;SDS011;39219;53.678;9.856;2023-06-01T08:51:56;10.18;;;3.38;;
52838;SDS011;39219;53.678;9.856;2023-06-01T08:54:24;10.20;;;3.50;;
52838;SDS011;39219;53.678;9.856;2023-06-01T08:56:51;11.73;;;3.85;;
52838;SDS011;39219;53.678;9.856;2023-06-01T08:59:17;13.55;;;4.13;;
52838;SDS011;39219;53.678;9.856;2023-06-01T09:01:43;10.00;;;3.60;;
52838;SDS011;39219;53.678;9.856;2023-06-01T09:04:11;9.82;;;3.50;;
52838;SDS011;39219;53.678;9.856;2023-06-01T09:06:38;12.82;;;3.70;;
52838;SDS011;39219;53.678;9.856;2023-06-01T09:09:05;11.93;;;3.40;;
52838;SDS011;39219;53.678;9.856;2023-06-01T09:11:37;9.10;;;3.60;;
52838;SDS011;39219;53.678;9.856;2023-06-01T09:14:06;11.85;;;3.20;;
52838;SDS011;39219;53.678;9.856;2023-06-01T09:16:45;11.80;;;3.20;;
52838;SDS011;39219;53.678;9.856;2023-06-01T09:19:11;10.43;;;3.67;;
52838;SDS011;39219;53.678;9.856;2023-06-01T09:21:38;10.57;;;3.53;;
52838;SDS011;39219;53.678;9.856;2023-06-01T09:24:19;10.80;;;3.40;;
52838;SDS011;39219;53.678;9.856;2023-06-01T09:26:48;9.98;;;3.50;;
52838;SDS011;39219;53.678;9.856;2023-06-01T09:29:15;10.60;;;3.38;;
52838;SDS011;39219;53.678;9.856;2023-06-01T09:31:42;14.35;;;3.63;;
52838;SDS011;39219;53.678;9.856;2023-06-01T09:34:10;12.32;;;3.90;;
52838;SDS011;39219;53.678;9.856;2023-06-01T09:36:37;12.90;;;3.70;;
52838;SDS011;39219;53.678;9.856;2023-06-01T09:39:04;11.57;;;3.50;;
52838;SDS011;39219;53.678;9.856;2023-06-01T09:41:46;11.50;;;3.50;;
52838;SDS011;39219;53.678;9.856;2023-06-01T09:44:21;9.15;;;3.13;;
52838;SDS011;39219;53.678;9.856;2023-06-01T09:46:48;14.30;;;3.80;;
52838;SDS011;39219;53.678;9.856;2023-06-01T09:49:21;12.93;;;3.55;;
52838;SDS011;39219;53.678;9.856;2023-06-01T09:51:49;10.82;;;3.53;;
52838;SDS011;39219;53.678;9.856;2023-06-01T09:54:22;8.30;;;3.30;;
52838;SDS011;39219;53.678;9.856;2023-06-01T09:56:49;10.05;;;3.30;;
52838;SDS011;39219;53.678;9.856;2023-06-01T09:59:16;9.68;;;3.28;;
52838;SDS011;39219;53.678;9.856;2023-06-01T10:01:43;13.95;;;3.55;;
52838;SDS011;39219;53.678;9.856;2023-06-01T10:04:09;12.15;;;3.97;;
52838;SDS011;39219;53.678;9.856;2023-06-01T10:06:38;8.07;;;3.15;;
52838;SDS011;39219;53.678;9.856;2023-06-01T10:09:05;10.32;;;3.80;;
52838;SDS011;39219;53.678;9.856;2023-06-01T10:11:33;7.97;;;3.47;;
52838;SDS011;39219;53.678;9.856;2023-06-01T10:14:00;8.75;;;3.20;;
52838;SDS011;39219;53.678;9.856;2023-06-01T10:16:29;12.15;;;3.05;;
52838;SDS011;39219;53.678;9.856;2023-06-01T10:18:55;9.65;;;3.20;;
52838;SDS011;39219;53.678;9.856;2023-06-01T10:21:22;9.82;;;3.33;;
52838;SDS011;39219;53.678;9.856;2023-06-01T10:23:49;10.15;;;3.28;;
52838;SDS011;39219;53.678;9.856;2023-06-01T10:26:16;11.52;;;3.50;;
52838;SDS011;39219;53.678;9.856;2023-06-01T10:28:44;8.38;;;3.20;;
52838;SDS011;39219;53.678;9.856;2023-06-01T10:31:33;12.20;;;3.70;;
52838;SDS011;39219;53.678;9.856;2023-06-01T10:33:59;13.00;;;3.50;;
52838;SDS011;39219;53.678;9.856;2023-06-01T10:36:36;9.82;;;3.58;;
52838;SDS011;39219;53.678;9.856;2023-06-01T10:39:23;13.30;;;3.60;;
52838;SDS011;39219;53.678;9.856;2023-06-01T10:41:49;11.10;;;3.00;;
52838;SDS011;39219;53.678;9.856;2023-06-01T10:46:58;10.15;;;3.30;;
52838;SDS011;39219;53.678;9.856;2023-06-01T10:49:24;9.82;;;3.22;;
52838;SDS011;39219;53.678;9.856;2023-06-01T10:52:23;11.05;;;3.60;;
52838;SDS011;39219;53.678;9.856;2023-06-01T10:54:50;12.15;;;2.83;;
52838;SDS011;39219;53.678;9.856;2023-06-01T10:57:20;14.23;;;3.33;;
52838;SDS011;39219;53.678;9.856;2023-06-01T11:02:35;10.63;;;2.95;;
52838;SDS011;39219;53.678;9.856;2023-06-01T11:07:52;11.52;;;3.30;;
52838;SDS011;39219;53.678;9.856;2023-06-01T11:13:13;9.60;;;3.58;;
52838;SDS011;39219;53.678;9.856;2023-06-01T11:15:45;9.60;;;3.30;;
52838;SDS011;39219;53.678;9.856;2023-06-01T11:18:43;10.43;;;2.70;;
52838;SDS011;39219;53.678;9.856;2023-06-01T11:21:09;10.05;;;3.22;;
52838;SDS011;39219;53.678;9.856;2023-06-01T11:23:38;13.52;;;3.20;;
52838;SDS011;39219;53.678;9.856;2023-06-01T11:26:05;10.13;;;2.70;;
52838;SDS011;39219;53.678;9.856;2023-06-01T11:28:32;11.52;;;3.08;;
52838;SDS011;39219;53.678;9.856;2023-06-01T11:30:58;11.13;;;3.40;;
52838;SDS011;39219;53.678;9.856;2023-06-01T11:33:27;13.63;;;3.25;;
52838;SDS011;39219;53.678;9.856;2023-06-01T11:35:58;12.82;;;3.00;;
52838;SDS011;39219;53.678;9.856;2023-06-01T11:38:30;8.18;;;2.60;;
52838;SDS011;39219;53.678;9.856;2023-06-01T11:40:58;10.13;;;2.53;;
52838;SDS011;39219;53.678;9.856;2023-06-01T11:43:27;10.88;;;2.85;;
52838;SDS011;39219;53.678;9.856;2023-06-01T11:46:03;9.75;;;2.60;;
52838;SDS011;39219;53.678;9.856;2023-06-01T11:48:30;11.43;;;2.90;;
52838;SDS011;39219;53.678;9.856;2023-06-01T11:50:57;8.20;;;2.47;;
52838;SDS011;39219;53.678;9.856;2023-06-01T11:53:25;9.80;;;2.45;;
52838;SDS011;39219;53.678;9.856;2023-06-01T11:55:53;7.38;;;2.20;;
52838;SDS011;39219;53.678;9.856;2023-06-01T11:58:20;10.60;;;2.78;;
52838;SDS011;39219;53.678;9.856;2023-06-01T12:00:47;9.93;;;2.67;;
52838;SDS011;39219;53.678;9.856;2023-06-01T12:03:13;7.32;;;2.50;;
52838;SDS011;39219;53.678;9.856;2023-06-01T12:05:39;10.15;;;2.60;;
52838;SDS011;39219;53.678;9.856;2023-06-01T12:08:12;8.50;;;2.33;;
52838;SDS011;39219;53.678;9.856;2023-06-01T12:10:40;9.98;;;2.40;;
52838;SDS011;39219;53.678;9.856;2023-06-01T12:13:07;10.20;;;2.60;;
52838;SDS011;39219;53.678;9.856;2023-06-01T12:15:33;10.15;;;2.60;;
52838;SDS011;39219;53.678;9.856;2023-06-01T12:18:00;10.77;;;2.15;;
52838;SDS011;39219;53.678;9.856;2023-06-01T12:20:27;10.68;;;2.55;;
52838;SDS011;39219;53.678;9.856;2023-06-01T12:22:53;8.43;;;2.15;;
52838;SDS011;39219;53.678;9.856;2023-06-01T12:25:21;9.40;;;2.65;;
52838;SDS011;39219;53.678;9.856;2023-06-01T12:28:00;10.63;;;2.70;;
52838;SDS011;39219;53.678;9.856;2023-06-01T12:30:26;11.18;;;2.90;;
52838;SDS011;39219;53.678;9.856;2023-06-01T12:32:52;15.18;;;2.83;;
52838;SDS011;39219;53.678;9.856;2023-06-01T12:35:19;10.75;;;2.42;;
52838;SDS011;39219;53.678;9.856;2023-06-01T12:38:01;11.98;;;2.30;;
52838;SDS011;39219;53.678;9.856;2023-06-01T12:40:28;8.90;;;2.28;;
52838;SDS011;39219;53.678;9.856;2023-06-01T12:42:54;11.20;;;2.50;;
52838;SDS011;39219;53.678;9.856;2023-06-01T12:45:22;11.60;;;2.70;;
52838;SDS011;39219;53.678;9.856;2023-06-01T12:47:48;9.20;;;2.40;;
52838;SDS011;39219;53.678;9.856;2023-06-01T12:50:14;7.20;;;2.70;;
52838;SDS011;39219;53.678;9.856;2023-06-01T12:52:41;8.73;;;2.50;;
52838;SDS011;39219;53.678;9.856;2023-06-01T12:55:08;10.80;;;2.55;;
52838;SDS011;39219;53.678;9.856;2023-06-01T12:57:34;13.55;;;2.55;;
52838;SDS011;39219;53.678;9.856;2023-06-01T13:00:02;10.02;;;2.40;;
52838;SDS011;39219;53.678;9.856;2023-06-01T13:02:31;7.63;;;2.58;;
52838;SDS011;39219;53.678;9.856;2023-06-01T13:04:58;11.98;;;2.70;;
52838;SDS011;39219;53.678;9.856;2023-06-01T13:07:24;13.95;;;2.50;;
52838;SDS011;39219;53.678;9.856;2023-06-01T13:09:51;10.65;;;2.70;;
52838;SDS011;39219;53.678;9.856;2023-06-01T13:12:18;12.95;;;2.90;;
52838;SDS011;39219;53.678;9.856;2023-06-01T13:14:44;12.80;;;2.78;;
52838;SDS011;39219;53.678;9.856;2023-06-01T13:17:11;10.48;;;2.53;;
52838;SDS011;39219;53.678;9.856;2023-06-01T13:19:39;13.65;;;3.05;;
52838;SDS011;39219;53.678;9.856;2023-06-01T13:22:05;11.27;;;3.13;;
52838;SDS011;39219;53.678;9.856;2023-06-01T13:24:32;12.00;;;2.85;;
52838;SDS011;39219;53.678;9.856;2023-06-01T13:26:58;14.88;;;2.75;;
52838;SDS011;39219;53.678;9.856;2023-06-01T13:29:25;10.48;;;2.85;;
52838;SDS011;39219;53.678;9.856;2023-06-01T13:31:51;11.38;;;3.03;;
52838;SDS011;39219;53.678;9.856;2023-06-01T13:34:17;14.15;;;2.88;;
52838;SDS011;39219;53.678;9.856;2023-06-01T13:36:47;9.98;;;2.70;;
52838;SDS011;39219;53.678;9.856;2023-06-01T13:39:14;9.65;;;2.53;;
52838;SDS011;39219;53.678;9.856;2023-06-01T13:41:40;10.82;;;2.50;;
52838;SDS011;39219;53.678;9.856;2023-06-01T13:44:06;16.58;;;3.63;;
52838;SDS011;39219;53.678;9.856;2023-06-01T13:46:33;16.13;;;2.60;;
52838;SDS011;39219;53.678;9.856;2023-06-01T13:48:59;12.35;;;2.60;;
52838;SDS011;39219;53.678;9.856;2023-06-01T13:51:25;11.75;;;2.60;;
52838;SDS011;39219;53.678;9.856;2023-06-01T13:53:54;12.63;;;2.50;;
52838;SDS011;39219;53.678;9.856;2023-06-01T13:56:20;12.85;;;2.40;;
52838;SDS011;39219;53.678;9.856;2023-06-01T13:58:48;13.25;;;2.63;;
52838;SDS011;39219;53.678;9.856;2023-06-01T14:01:15;14.10;;;3.03;;
52838;SDS011;39219;53.678;9.856;2023-06-01T14:03:41;12.38;;;2.92;;
52838;SDS011;39219;53.678;9.856;2023-06-01T14:06:07;11.48;;;2.80;;
52838;SDS011;39219;53.678;9.856;2023-06-01T14:08:34;14.55;;;3.10;;
52838;SDS011;39219;53.678;9.856;2023-06-01T14:11:01;12.32;;;2.80;;
52838;SDS011;39219;53.678;9.856;2023-06-01T14:13:28;14.20;;;2.95;;
52838;SDS011;39219;53.678;9.856;2023-06-01T14:15:54;13.75;;;2.97;;
52838;SDS011;39219;53.678;9.856;2023-06-01T14:18:20;12.85;;;3.13;;
52838;SDS011;39219;53.678;9.856;2023-06-01T14:20:47;17.65;;;3.00;;
52838;SDS011;39219;53.678;9.856;2023-06-01T14:23:13;17.30;;;3.47;;
52838;SDS011;39219;53.678;9.856;2023-06-01T14:25:40;13.60;;;2.80;;
52838;SDS011;39219;53.678;9.856;2023-06-01T14:28:08;14.05;;;2.80;;
52838;SDS011;39219;53.678;9.856;2023-06-01T14:30:34;11.52;;;2.90;;
52838;SDS011;39219;53.678;9.856;2023-06-01T14:33:00;16.55;;;3.50;;
52838;SDS011;39219;53.678;9.856;2023-06-01T14:35:26;12.68;;;3.15;;
52838;SDS011;39219;53.678;9.856;2023-06-01T14:37:53;13.73;;;2.90;;
52838;SDS011;39219;53.678;9.856;2023-06-01T14:40:20;14.55;;;3.65;;
52838;SDS011;39219;53.678;9.856;2023-06-01T14:42:46;10.38;;;2.60;;
52838;SDS011;39219;53.678;9.856;2023-06-01T14:45:14;11.65;;;2.90;;
52838;SDS011;39219;53.678;9.856;2023-06-01T14:47:41;25.30;;;3.97;;
52838;SDS011;39219;53.678;9.856;2023-06-01T14:50:07;14.25;;;2.90;;
52838;SDS011;39219;53.678;9.856;2023-06-01T14:52:34;14.68;;;3.38;;